This is the latest recevied weather packets stored in our database for station/object GW1482. If no packets are shown the sender has not sent any weather packets the latest 10 day(s).
| Time | Temp. | Humidity | Pressure | Rain* | Wind** | Luminosity | Snow |
|---|---|---|---|---|---|---|---|
| 1777770939 | 5° C | 66% | 1000 hPa | 0 mm | - | - | - |
| 1777766974 | 6.11° C | 59% | 1000 hPa | 0 mm | - | - | - |
| 1777766615 | 6.11° C | 56% | 1000 hPa | 0 mm | - | - | - |
| 1777763735 | 6.67° C | 55% | 999.6 hPa | 0 mm | - | - | - |
| 1777760494 | 7.22° C | 55% | 999.3 hPa | 0 mm | - | - | - |
| 1777759778 | 7.22° C | 54% | 999.3 hPa | 0 mm | - | - | - |
| 1777755792 | 7.78° C | 53% | 998.9 hPa | 0 mm | - | - | - |
| 1777755434 | 7.78° C | 51% | 998.9 hPa | 0 mm | - | - | - |
| 1777753284 | 7.78° C | 49% | 999.3 hPa | 0 mm | - | - | - |
| 1777748971 | 7.78° C | 55% | 1000 hPa | 0 mm | - | - | - |
| 1777743230 | 7.78° C | 55% | 1000.3 hPa | 0 mm | - | - | - |
| 1777740341 | 7.22° C | 57% | 1000.3 hPa | 0 mm | - | - | - |
| 1777739970 | 7.22° C | 58% | 1000.3 hPa | 0 mm | - | - | - |
| 1777736750 | 6.67° C | 60% | 1000.6 hPa | 0 mm | - | - | - |
| 1777733504 | 6.11° C | 65% | 1000.6 hPa | 0 mm | - | - | - |
| 1777729880 | 5° C | 73% | 1000.6 hPa | 0 mm | - | - | - |
| 1777729515 | 5° C | 74% | 1000.6 hPa | 0 mm | - | - | - |
| 1777727713 | 4.44° C | 82% | 1000.6 hPa | 0 mm | - | - | - |
| 1777725575 | 2.78° C | 90% | 1000.3 hPa | 0 mm | - | - | - |
| 1777724847 | 2.78° C | 90% | 1000.6 hPa | 0 mm | - | - | - |
| 1777723763 | 2.78° C | 95% | 1000.6 hPa | 0 mm | - | - | - |
| 1777721617 | 1.67° C | 97% | 1000.3 hPa | 0 mm | - | - | - |
| 1777720521 | 1.11° C | 98% | 1000.3 hPa | 0 mm | - | - | - |
| 1777719111 | 1.11° C | 97% | 1000.3 hPa | 0 mm | - | - | - |
| 1777718384 | 1.11° C | 97% | 1000.6 hPa | 0 mm | - | - | - |
* Rain since midnight (hover to see other rain measurements)
** Current wind speed in m/s (hover to see current wind gust speed)